Time;durP1;ratioP1;P1;durP2;ratioP2;P2;SDS_P1;SDS_P2;PMS_P1;PMS_P2;Temp;Humidity;BMP_temperature;BMP_pressure;BME280_temperature;BME280_humidity;BME280_pressure;Samples;Min_cycle;Max_cycle;Signal;HPM_P1;HPM_P2
2021/09/08 00:01:10;;;;;;;2.10;1.90;;;20.70;61.70;;;;;;5061273;28;20039;-35
2021/09/08 00:03:36;;;;;;;2.20;2.00;;;20.70;61.60;;;;;;5058394;28;20041;-36
2021/09/08 00:06:03;;;;;;;2.05;1.85;;;20.70;61.50;;;;;;5056052;28;20021;-35
2021/09/08 00:08:29;;;;;;;1.87;1.77;;;20.70;61.80;;;;;;5058532;28;20037;-35
2021/09/08 00:10:55;;;;;;;1.88;1.77;;;20.70;61.90;;;;;;5059777;28;20105;-35
2021/09/08 00:13:21;;;;;;;2.20;2.00;;;20.60;61.80;;;;;;5060897;28;20468;-35
2021/09/08 00:15:48;;;;;;;2.35;2.10;;;20.60;62.00;;;;;;5061822;28;20024;-35
2021/09/08 00:18:14;;;;;;;1.55;1.45;;;20.60;61.70;;;;;;5060957;28;20029;-36
2021/09/08 00:20:40;;;;;;;2.17;1.98;;;20.60;62.20;;;;;;5060521;28;20067;-35
2021/09/08 00:23:06;;;;;;;2.25;2.05;;;20.60;61.50;;;;;;5058399;28;20029;-35
2021/09/08 00:25:32;;;;;;;2.17;1.98;;;20.60;63.20;;;;;;5059758;28;20032;-35
2021/09/08 00:27:59;;;;;;;1.10;1.00;;;20.60;62.20;;;;;;5060447;28;20037;-35
2021/09/08 00:30:25;;;;;;;2.17;1.98;;;20.60;63.00;;;;;;5060118;28;20029;-35
2021/09/08 00:32:51;;;;;;;2.35;2.15;;;20.50;62.30;;;;;;5049348;28;20036;-35
2021/09/08 00:35:17;;;;;;;2.15;1.95;;;20.50;62.60;;;;;;5054806;28;20048;-35
2021/09/08 00:37:43;;;;;;;2.20;2.00;;;20.50;62.00;;;;;;5057229;28;20115;-35
2021/09/08 00:40:10;;;;;;;2.45;2.10;;;20.50;61.90;;;;;;5058061;28;20029;-35
2021/09/08 00:42:37;;;;;;;2.13;1.92;;;20.50;61.70;;;;;;5050957;28;20029;-35
2021/09/08 00:45:03;;;;;;;2.08;1.88;;;20.50;63.20;;;;;;5055949;28;20029;-35
2021/09/08 00:47:30;;;;;;;2.40;2.20;;;20.50;63.30;;;;;;5053662;28;20037;-35
2021/09/08 00:49:56;;;;;;;2.22;2.03;;;20.50;65.10;;;;;;5057369;28;20033;-35
2021/09/08 00:52:22;;;;;;;2.60;2.40;;;20.50;64.20;;;;;;5057016;28;20030;-35
2021/09/08 00:54:49;;;;;;;2.30;2.10;;;20.50;64.20;;;;;;5057283;28;20092;-35
2021/09/08 00:57:16;;;;;;;2.50;2.30;;;20.50;64.30;;;;;;5057692;28;20059;-35
2021/09/08 00:59:43;;;;;;;2.30;2.10;;;20.60;64.10;;;;;;5058652;28;20039;-35
2021/09/08 01:02:11;;;;;;;2.17;1.98;;;20.60;64.70;;;;;;5059113;28;20060;-35
2021/09/08 01:04:37;;;;;;;2.63;2.42;;;20.60;64.80;;;;;;5057751;28;20032;-35
2021/09/08 01:07:04;;;;;;;2.22;2.03;;;20.60;63.60;;;;;;5059670;28;20071;-36
2021/09/08 01:09:30;;;;;;;2.60;2.40;;;20.60;65.40;;;;;;5059800;28;20033;-35
2021/09/08 01:11:56;;;;;;;2.78;2.28;;;20.60;65.20;;;;;;5025846;28;20040;-35
2021/09/08 01:14:23;;;;;;;3.10;2.80;;;20.70;65.50;;;;;;5057252;28;20059;-35
2021/09/08 01:16:53;;;;;;;3.10;2.80;;;20.70;65.50;;;;;;5056520;28;20085;-35
2021/09/08 01:19:19;;;;;;;2.40;2.20;;;20.70;65.80;;;;;;5058462;28;20097;-36
2021/09/08 01:21:45;;;;;;;2.80;2.60;;;20.80;66.40;;;;;;5053011;28;20033;-35
2021/09/08 01:24:11;;;;;;;2.92;2.35;;;20.80;66.20;;;;;;5059698;28;20108;-35
2021/09/08 01:26:39;;;;;;;3.15;2.67;;;20.80;66.60;;;;;;5060492;28;20033;-35
2021/09/08 01:29:05;;;;;;;2.67;2.47;;;20.90;66.80;;;;;;5052821;28;20159;-35
2021/09/08 01:31:31;;;;;;;3.15;2.85;;;20.90;67.30;;;;;;5062814;28;20060;-35
2021/09/08 01:33:57;;;;;;;2.75;2.55;;;20.90;67.00;;;;;;5045913;28;20029;-35
2021/09/08 01:36:23;;;;;;;3.05;2.83;;;20.90;67.40;;;;;;5059395;28;20027;-35
2021/09/08 01:38:50;;;;;;;3.03;2.72;;;21.00;67.70;;;;;;5060884;28;20114;-35
2021/09/08 01:41:16;;;;;;;2.78;2.55;;;21.00;66.80;;;;;;5050749;28;20029;-35
2021/09/08 01:43:45;;;;;;;2.88;2.67;;;21.00;66.80;;;;;;5058323;28;20044;-36
2021/09/08 01:46:20;;;;;;;3.20;2.90;;;21.00;67.40;;;;;;5062153;28;20029;-37
2021/09/08 01:48:47;;;;;;;2.80;2.60;;;21.10;66.60;;;;;;5062694;28;20033;-35
2021/09/08 01:51:13;;;;;;;2.60;2.40;;;21.10;67.60;;;;;;5055754;28;20029;-35
2021/09/08 01:53:39;;;;;;;3.20;2.90;;;21.10;67.70;;;;;;5060061;28;20029;-35
2021/09/08 01:56:06;;;;;;;2.80;2.60;;;21.10;68.30;;;;;;5058924;28;20037;-36
2021/09/08 01:58:32;;;;;;;2.90;2.70;;;21.20;68.10;;;;;;5056584;28;20678;-35
2021/09/08 02:00:58;;;;;;;2.95;2.65;;;21.20;67.20;;;;;;5062312;28;20051;-36
2021/09/08 02:03:24;;;;;;;3.10;2.87;;;21.20;67.40;;;;;;5061612;28;20055;-35
2021/09/08 02:05:51;;;;;;;3.33;3.03;;;21.20;67.10;;;;;;5059530;28;20773;-36
2021/09/08 02:08:17;;;;;;;3.10;2.80;;;21.30;67.00;;;;;;5061885;28;20036;-36
2021/09/08 02:10:43;;;;;;;2.88;2.67;;;21.30;67.30;;;;;;5053618;28;20040;-35
2021/09/08 02:13:09;;;;;;;3.20;2.80;;;21.30;67.90;;;;;;5057164;28;20063;-35
2021/09/08 02:15:35;;;;;;;2.72;2.53;;;21.30;68.00;;;;;;5058949;28;20033;-35
2021/09/08 02:18:02;;;;;;;3.40;3.10;;;21.30;67.90;;;;;;5057535;28;20034;-36
2021/09/08 02:20:28;;;;;;;2.90;2.70;;;21.40;67.60;;;;;;5056055;28;20025;-35
2021/09/08 02:22:54;;;;;;;3.40;3.10;;;21.40;67.60;;;;;;5056582;28;20040;-36
2021/09/08 02:25:20;;;;;;;3.42;3.13;;;21.40;68.00;;;;;;5057049;28;20025;-37
2021/09/08 02:27:46;;;;;;;3.30;3.00;;;21.40;67.90;;;;;;5058672;28;20045;-35
2021/09/08 02:30:13;;;;;;;3.33;3.03;;;21.40;67.80;;;;;;5053596;28;20034;-35
2021/09/08 02:32:39;;;;;;;3.95;3.20;;;21.50;67.90;;;;;;5058038;28;20021;-36
2021/09/08 02:35:06;;;;;;;3.53;3.22;;;21.50;67.90;;;;;;5055356;28;20021;-35
2021/09/08 02:37:32;;;;;;;3.35;3.05;;;21.50;67.30;;;;;;5040789;28;20067;-36
2021/09/08 02:39:58;;;;;;;3.53;3.22;;;21.50;67.80;;;;;;5056377;28;20689;-36
2021/09/08 02:42:25;;;;;;;3.22;2.92;;;21.60;67.60;;;;;;5057577;28;20032;-36
2021/09/08 02:44:51;;;;;;;3.42;3.13;;;21.60;67.80;;;;;;5057652;28;20052;-35
2021/09/08 02:47:17;;;;;;;3.58;3.28;;;21.60;68.30;;;;;;5057003;28;20052;-36
2021/09/08 02:49:43;;;;;;;3.80;3.50;;;21.60;67.60;;;;;;5056060;28;20100;-36
2021/09/08 02:52:10;;;;;;;3.97;3.60;;;21.70;68.00;;;;;;5056600;28;20037;-36
2021/09/08 02:54:36;;;;;;;3.40;3.13;;;21.70;67.70;;;;;;5056276;28;20063;-35
2021/09/08 02:57:03;;;;;;;3.47;3.17;;;21.70;67.90;;;;;;5061957;28;20116;-35
2021/09/08 02:59:29;;;;;;;;;;;21.70;68.00;;;;;;5060205;28;20045;-36
2021/09/08 03:01:55;;;;;;;3.88;3.58;;;21.70;67.70;;;;;;5062591;28;20242;-36
2021/09/08 03:04:21;;;;;;;3.80;3.25;;;21.70;67.90;;;;;;5056789;28;20089;-36
2021/09/08 03:06:49;;;;;;;3.60;3.30;;;21.70;68.00;;;;;;5061951;28;20047;-36
2021/09/08 03:09:15;;;;;;;;;;;21.70;67.70;;;;;;5063075;28;20040;-36
2021/09/08 03:11:42;;;;;;;3.35;3.05;;;21.80;68.10;;;;;;5063141;28;20019;-36
2021/09/08 03:14:08;;;;;;;4.00;3.60;;;21.80;67.90;;;;;;5058207;28;20024;-36
2021/09/08 03:16:34;;;;;;;3.53;3.22;;;21.80;68.10;;;;;;5062799;28;20624;-36
2021/09/08 03:19:00;;;;;;;3.55;3.25;;;21.80;68.10;;;;;;5057682;28;20043;-35
2021/09/08 03:21:27;;;;;;;3.35;3.05;;;21.80;68.00;;;;;;5059719;28;20129;-36
2021/09/08 03:23:53;;;;;;;3.60;3.30;;;21.80;67.90;;;;;;5061723;28;20557;-36
2021/09/08 03:26:19;;;;;;;4.10;3.67;;;21.90;67.80;;;;;;5056620;28;20545;-36
2021/09/08 03:28:45;;;;;;;3.58;3.22;;;21.90;67.60;;;;;;5060419;28;20103;-37
2021/09/08 03:31:12;;;;;;;3.47;3.17;;;21.90;67.60;;;;;;5041315;28;20375;-36
2021/09/08 03:33:38;;;;;;;3.22;2.92;;;21.90;67.80;;;;;;5060395;28;20032;-35
2021/09/08 03:36:04;;;;;;;3.83;3.45;;;21.90;67.80;;;;;;5061440;28;20081;-36
2021/09/08 03:38:30;;;;;;;3.50;3.20;;;21.90;67.50;;;;;;5061768;28;20055;-36
2021/09/08 03:40:57;;;;;;;3.40;3.10;;;21.90;67.60;;;;;;5046897;28;20029;-36
2021/09/08 03:43:23;;;;;;;3.70;3.40;;;21.90;67.70;;;;;;5058048;28;20051;-36
2021/09/08 03:45:49;;;;;;;5.50;3.45;;;21.90;67.90;;;;;;5064941;28;20037;-36
2021/09/08 03:48:15;;;;;;;3.80;3.47;;;22.00;68.20;;;;;;5057508;28;20734;-35
2021/09/08 03:50:41;;;;;;;3.75;3.40;;;22.00;68.20;;;;;;5052922;28;20051;-36
2021/09/08 03:53:07;;;;;;;4.15;3.75;;;22.00;68.20;;;;;;5061459;28;20072;-36
2021/09/08 03:55:34;;;;;;;3.70;3.40;;;22.00;68.20;;;;;;5062935;28;20056;-36
2021/09/08 03:58:00;;;;;;;3.55;3.25;;;22.00;68.10;;;;;;5059241;28;20051;-36
2021/09/08 04:00:26;;;;;;;3.60;3.30;;;22.00;68.00;;;;;;5061766;28;20060;-36
2021/09/08 04:02:52;;;;;;;3.90;3.60;;;22.00;68.10;;;;;;5059470;28;20025;-36
2021/09/08 04:05:18;;;;;;;3.67;3.38;;;22.00;68.20;;;;;;5056727;28;20048;-36
2021/09/08 04:07:44;;;;;;;3.65;3.35;;;22.10;68.00;;;;;;5060641;28;20090;-36
2021/09/08 04:10:11;;;;;;;3.25;2.95;;;22.10;67.20;;;;;;5062239;28;20043;-36
2021/09/08 04:12:37;;;;;;;4.00;3.03;;;22.10;65.70;;;;;;5060662;28;20024;-36
2021/09/08 04:15:04;;;;;;;2.90;2.70;;;22.10;64.90;;;;;;5059349;28;20262;-36
2021/09/08 04:17:30;;;;;;;3.20;2.90;;;22.10;64.70;;;;;;5061992;28;20025;-35
2021/09/08 04:19:56;;;;;;;3.42;3.13;;;22.00;64.90;;;;;;5059535;28;20029;-36
2021/09/08 04:22:22;;;;;;;3.85;3.55;;;22.00;65.60;;;;;;5060437;28;20631;-36
2021/09/08 04:24:48;;;;;;;5.90;3.38;;;22.00;66.10;;;;;;5058390;28;20033;-36
2021/09/08 04:27:14;;;;;;;3.65;3.35;;;22.00;66.40;;;;;;5059481;28;20044;-35
2021/09/08 04:29:41;;;;;;;3.50;3.20;;;22.00;66.50;;;;;;5056611;28;20033;-36
2021/09/08 04:32:07;;;;;;;3.67;3.35;;;22.10;66.60;;;;;;5058215;28;20021;-36
2021/09/08 04:34:33;;;;;;;3.22;2.95;;;22.10;66.80;;;;;;5059962;28;20029;-37
2021/09/08 04:36:59;;;;;;;3.80;3.20;;;22.10;66.80;;;;;;5060535;28;20029;-35
2021/09/08 04:39:25;;;;;;;3.28;2.97;;;22.10;66.90;;;;;;5059779;28;20040;-35
2021/09/08 04:41:52;;;;;;;3.28;2.97;;;22.10;67.00;;;;;;5054644;28;20111;-36
2021/09/08 04:44:18;;;;;;;3.30;3.00;;;22.10;67.20;;;;;;5053144;28;20039;-36
2021/09/08 04:46:44;;;;;;;3.30;3.00;;;22.10;67.20;;;;;;5055618;28;20082;-36
2021/09/08 04:49:10;;;;;;;3.20;2.90;;;22.10;67.20;;;;;;5061110;28;20536;-36
2021/09/08 04:51:36;;;;;;;3.42;3.03;;;22.10;67.20;;;;;;5057679;28;20028;-36
2021/09/08 04:54:02;;;;;;;3.58;3.28;;;22.10;67.10;;;;;;5039332;28;20032;-36
2021/09/08 04:56:29;;;;;;;3.25;2.97;;;22.10;67.20;;;;;;5060290;28;20048;-36
2021/09/08 04:58:55;;;;;;;2.88;2.67;;;22.10;67.10;;;;;;5053990;28;20056;-36
2021/09/08 05:01:21;;;;;;;3.40;3.10;;;22.10;67.20;;;;;;5048747;28;20022;-36
2021/09/08 05:03:47;;;;;;;3.50;3.20;;;22.10;67.00;;;;;;5058977;28;20028;-36
2021/09/08 05:06:13;;;;;;;3.35;2.80;;;22.10;66.70;;;;;;5057026;28;20029;-36
2021/09/08 05:08:39;;;;;;;2.72;2.40;;;22.10;65.30;;;;;;5056623;28;20047;-36
2021/09/08 05:11:06;;;;;;;3.05;2.60;;;22.10;64.50;;;;;;5056687;28;20037;-36
2021/09/08 05:13:32;;;;;;;2.92;2.63;;;22.10;64.20;;;;;;5059692;28;20033;-36
2021/09/08 05:15:58;;;;;;;3.00;2.72;;;22.10;64.80;;;;;;5060349;28;20028;-36
2021/09/08 05:18:24;;;;;;;2.95;2.75;;;22.10;65.60;;;;;;5057921;28;20028;-36
2021/09/08 05:20:51;;;;;;;3.75;3.03;;;22.10;66.10;;;;;;5059911;28;20036;-36
2021/09/08 05:23:17;;;;;;;3.30;3.00;;;22.10;66.30;;;;;;5062006;28;20029;-36
2021/09/08 05:25:43;;;;;;;2.65;2.45;;;22.10;66.40;;;;;;5062745;28;20048;-36
2021/09/08 05:28:11;;;;;;;2.72;2.50;;;22.10;66.50;;;;;;5060397;28;20397;-36
2021/09/08 05:30:37;;;;;;;3.10;2.80;;;22.10;66.50;;;;;;5061497;28;20056;-36
2021/09/08 05:33:04;;;;;;;2.97;2.67;;;22.10;66.60;;;;;;5073006;28;20025;-36
2021/09/08 05:35:30;;;;;;;3.08;2.78;;;22.10;66.60;;;;;;5062005;28;20273;-36
2021/09/08 05:37:56;;;;;;;3.10;2.80;;;22.10;66.60;;;;;;5058581;28;20591;-36
2021/09/08 05:40:22;;;;;;;2.50;2.30;;;22.10;66.50;;;;;;5062036;28;20039;-35
2021/09/08 05:42:48;;;;;;;2.53;2.33;;;22.10;65.70;;;;;;5063284;28;20092;-36
2021/09/08 05:45:14;;;;;;;2.40;2.20;;;22.10;64.50;;;;;;5063164;28;20025;-36
2021/09/08 05:47:41;;;;;;;2.58;2.38;;;22.10;64.00;;;;;;5062633;28;20063;-35
2021/09/08 05:50:07;;;;;;;2.47;2.28;;;22.10;63.90;;;;;;5070888;28;20025;-35
2021/09/08 05:52:33;;;;;;;2.65;2.45;;;22.10;64.10;;;;;;5062161;28;20025;-36
2021/09/08 05:55:00;;;;;;;2.78;2.58;;;22.10;64.60;;;;;;5062689;28;20055;-36
2021/09/08 05:57:26;;;;;;;3.13;2.60;;;22.10;65.30;;;;;;5062238;28;20148;-36
2021/09/08 05:59:52;;;;;;;2.85;2.65;;;22.10;65.70;;;;;;5061984;28;20557;-35
2021/09/08 06:02:18;;;;;;;3.00;2.70;;;22.10;65.90;;;;;;5056030;28;20029;-36
2021/09/08 06:04:46;;;;;;;2.65;2.45;;;22.10;66.20;;;;;;5074688;28;20036;-36
2021/09/08 06:07:12;;;;;;;2.67;2.47;;;22.10;66.30;;;;;;5060712;28;20048;-36
2021/09/08 06:09:38;;;;;;;2.35;2.15;;;22.10;66.40;;;;;;5062582;28;20036;-35
2021/09/08 06:12:05;;;;;;;3.20;2.53;;;22.10;66.40;;;;;;5061407;28;20029;-36
2021/09/08 06:14:31;;;;;;;2.70;2.50;;;22.10;66.50;;;;;;5062099;28;20039;-35
2021/09/08 06:16:57;;;;;;;2.67;2.45;;;22.10;66.40;;;;;;5062621;28;20096;-36
2021/09/08 06:19:23;;;;;;;2.87;2.63;;;22.10;66.40;;;;;;5062236;28;20025;-36
2021/09/08 06:21:50;;;;;;;3.20;2.90;;;22.10;66.40;;;;;;5062292;28;20570;-35
2021/09/08 06:24:16;;;;;;;2.60;2.40;;;22.10;66.30;;;;;;5058201;28;20028;-36
2021/09/08 06:26:42;;;;;;;2.85;2.63;;;22.10;66.20;;;;;;5059001;28;20703;-35
2021/09/08 06:29:08;;;;;;;2.60;2.40;;;22.10;66.20;;;;;;5060989;28;20041;-36
2021/09/08 06:31:35;;;;;;;2.50;2.30;;;22.10;66.10;;;;;;5061369;28;20017;-37
2021/09/08 06:34:01;;;;;;;2.47;2.28;;;22.10;66.10;;;;;;5061827;28;20025;-36
2021/09/08 06:36:27;;;;;;;2.90;2.70;;;22.10;66.20;;;;;;5062392;28;20024;-36
2021/09/08 06:38:53;;;;;;;2.47;2.28;;;22.10;66.40;;;;;;5056629;28;20803;-37
2021/09/08 06:41:19;;;;;;;2.58;2.38;;;22.20;66.70;;;;;;5054051;28;20025;-36
2021/09/08 06:43:49;;;;;;;2.53;2.33;;;22.20;66.80;;;;;;5062230;28;20025;-36
2021/09/08 06:46:16;;;;;;;2.60;2.40;;;22.20;66.80;;;;;;5045800;28;20514;-36
2021/09/08 06:48:42;;;;;;;2.55;2.22;;;22.20;66.80;;;;;;5062041;28;20037;-36
2021/09/08 06:51:09;;;;;;;2.42;2.22;;;22.20;66.90;;;;;;5044038;28;20025;-36
2021/09/08 06:53:37;;;;;;;2.38;2.17;;;22.20;66.80;;;;;;5060965;28;20033;-36
2021/09/08 06:56:04;;;;;;;2.60;2.40;;;22.20;66.70;;;;;;5028969;28;20046;-36
2021/09/08 06:58:30;;;;;;;;;;;22.20;66.70;;;;;;5033163;28;20127;-36
2021/09/08 07:00:56;;;;;;;2.53;2.33;;;22.20;66.80;;;;;;5062262;28;19917;-35
2021/09/08 07:03:22;;;;;;;2.75;2.55;;;22.20;66.70;;;;;;5061154;28;20028;-36
2021/09/08 07:05:48;;;;;;;3.25;2.65;;;22.20;66.60;;;;;;5061995;28;20037;-35
2021/09/08 07:08:16;;;;;;;2.42;2.22;;;22.20;66.70;;;;;;5061501;28;20047;-36
2021/09/08 07:10:42;;;;;;;2.60;2.40;;;22.20;66.60;;;;;;5073512;28;20033;-35
2021/09/08 07:13:08;;;;;;;2.65;2.45;;;22.20;66.60;;;;;;5061086;28;20096;-35
2021/09/08 07:15:34;;;;;;;2.28;2.08;;;22.20;66.70;;;;;;5061663;28;20132;-36
2021/09/08 07:18:01;;;;;;;2.20;2.05;;;22.20;66.80;;;;;;5078849;28;20350;-35
2021/09/08 07:20:27;;;;;;;2.28;2.08;;;22.20;66.80;;;;;;5061390;28;20021;-36
2021/09/08 07:22:54;;;;;;;2.17;1.98;;;22.20;66.90;;;;;;5061748;28;20044;-36
2021/09/08 07:25:20;;;;;;;2.37;2.17;;;22.20;66.90;;;;;;5062028;28;20033;-36
2021/09/08 07:27:46;;;;;;;2.50;2.25;;;22.20;66.80;;;;;;5061906;28;20140;-36
2021/09/08 07:30:12;;;;;;;2.60;2.40;;;22.20;66.80;;;;;;5062056;28;20490;-36
2021/09/08 07:32:38;;;;;;;2.30;2.03;;;22.20;66.80;;;;;;5043967;28;20055;-36
2021/09/08 07:35:05;;;;;;;2.40;2.20;;;22.20;66.80;;;;;;5061853;28;20032;-36
2021/09/08 07:37:33;;;;;;;2.38;2.17;;;22.20;66.80;;;;;;5059666;28;20107;-37
2021/09/08 07:39:59;;;;;;;2.50;2.30;;;22.20;67.50;;;;;;5061376;28;20507;-35
2021/09/08 07:42:25;;;;;;;2.55;2.25;;;22.30;66.70;;;;;;5064972;28;20025;-35
2021/09/08 07:44:51;;;;;;;2.33;2.10;;;22.20;66.60;;;;;;5065582;28;20025;-35
2021/09/08 07:47:17;;;;;;;2.70;2.50;;;22.30;66.70;;;;;;5065543;28;20037;-36
2021/09/08 07:49:43;;;;;;;2.85;2.65;;;22.30;66.70;;;;;;5065237;28;20082;-36
2021/09/08 07:52:10;;;;;;;2.63;2.40;;;22.30;66.70;;;;;;5059319;28;20032;-36
2021/09/08 07:54:36;;;;;;;2.67;2.03;;;22.30;66.80;;;;;;5064027;28;20116;-36
2021/09/08 07:57:02;;;;;;;2.47;2.25;;;22.30;66.80;;;;;;5064950;28;20072;-35
2021/09/08 07:59:28;;;;;;;2.92;1.95;;;22.30;66.90;;;;;;5064974;28;20577;-36
2021/09/08 08:01:54;;;;;;;3.13;2.42;;;22.30;66.80;;;;;;5064925;28;20048;-36
2021/09/08 08:04:21;;;;;;;2.28;1.92;;;22.30;66.20;;;;;;5065070;28;20036;-35
2021/09/08 08:06:47;;;;;;;2.15;1.95;;;22.30;65.30;;;;;;5055761;28;20088;-36
2021/09/08 08:09:13;;;;;;;2.15;1.95;;;22.30;64.80;;;;;;5064433;28;20044;-36
2021/09/08 08:11:39;;;;;;;2.38;1.98;;;22.20;64.60;;;;;;5084873;28;20080;-36
2021/09/08 08:14:06;;;;;;;2.28;2.08;;;22.20;64.70;;;;;;5085104;28;20032;-36
2021/09/08 08:16:32;;;;;;;2.10;1.88;;;22.30;65.00;;;;;;5084956;28;20020;-35
2021/09/08 08:18:59;;;;;;;2.30;2.10;;;22.30;65.40;;;;;;5073362;28;20029;-36
2021/09/08 08:21:25;;;;;;;2.22;2.03;;;22.20;65.60;;;;;;5082907;28;20254;-35
2021/09/08 08:23:53;;;;;;;2.55;2.35;;;22.30;65.80;;;;;;5064599;28;20071;-35
2021/09/08 08:26:21;;;;;;;2.30;2.10;;;22.20;65.90;;;;;;5067349;28;20057;-36
2021/09/08 08:28:47;;;;;;;2.00;1.80;;;22.20;66.00;;;;;;5072327;28;20406;-36
2021/09/08 08:31:13;;;;;;;2.22;2.03;;;22.20;66.10;;;;;;5061244;28;20050;-36
2021/09/08 08:33:40;;;;;;;2.30;2.10;;;22.20;66.20;;;;;;5064393;28;20032;-36
2021/09/08 08:36:06;;;;;;;2.40;2.20;;;22.20;66.30;;;;;;5064574;28;20029;-36
2021/09/08 08:38:32;;;;;;;2.08;1.80;;;22.20;66.40;;;;;;5064141;28;20017;-36
2021/09/08 08:40:58;;;;;;;2.58;2.38;;;22.20;66.30;;;;;;5064257;28;20111;-36
2021/09/08 08:43:24;;;;;;;2.05;1.88;;;22.20;66.30;;;;;;5029870;28;20025;-35
2021/09/08 08:45:50;;;;;;;2.78;1.83;;;22.20;66.30;;;;;;5066459;28;20092;-36
2021/09/08 08:48:17;;;;;;;2.10;1.90;;;22.20;66.30;;;;;;5050188;28;20054;-36
2021/09/08 08:50:43;;;;;;;1.95;1.80;;;22.20;66.30;;;;;;5046534;28;20049;-36
2021/09/08 08:53:09;;;;;;;2.38;2.15;;;22.20;66.30;;;;;;5063417;28;20025;-35
2021/09/08 08:55:36;;;;;;;2.05;1.85;;;22.20;66.30;;;;;;5054948;28;20021;-36
2021/09/08 08:58:02;;;;;;;2.13;1.92;;;22.20;66.20;;;;;;5061212;28;20700;-35
2021/09/08 09:00:28;;;;;;;2.20;2.00;;;22.20;66.20;;;;;;5063969;28;20067;-36
2021/09/08 09:02:55;;;;;;;1.85;1.75;;;22.20;66.30;;;;;;5045794;28;20059;-36
2021/09/08 09:05:38;;;;;;;2.30;2.10;;;22.20;66.30;;;;;;5063684;28;20044;-36
2021/09/08 09:08:09;;;;;;;2.03;1.83;;;22.20;66.20;;;;;;5062442;28;20071;-36
2021/09/08 09:10:38;;;;;;;2.25;2.05;;;22.30;66.40;;;;;;5046193;28;20021;-36
2021/09/08 09:13:05;;;;;;;2.03;1.83;;;22.20;66.30;;;;;;5056302;28;20064;-36
2021/09/08 09:15:31;;;;;;;2.30;2.10;;;22.20;67.10;;;;;;5059174;28;20021;-36
2021/09/08 09:17:57;;;;;;;2.20;2.00;;;22.30;66.50;;;;;;5063383;28;20056;-36
2021/09/08 09:20:25;;;;;;;1.83;1.73;;;22.30;66.50;;;;;;5055111;28;20025;-36
2021/09/08 09:22:53;;;;;;;1.67;1.58;;;22.30;67.20;;;;;;5031057;28;20083;-36
2021/09/08 09:25:24;;;;;;;1.92;1.75;;;22.30;66.50;;;;;;5063130;28;20021;-36
2021/09/08 09:27:52;;;;;;;2.25;1.90;;;22.30;66.50;;;;;;5062477;28;20500;-36
2021/09/08 09:30:22;;;;;;;2.20;1.98;;;22.30;66.50;;;;;;5043321;28;20499;-36
2021/09/08 09:32:50;;;;;;;2.35;2.10;;;22.30;66.50;;;;;;5044028;28;20037;-36
2021/09/08 09:35:21;;;;;;;2.42;2.15;;;22.20;66.40;;;;;;5063253;28;20059;-36
2021/09/08 09:37:52;;;;;;;2.03;1.90;;;22.30;66.60;;;;;;5059953;28;20040;-36
2021/09/08 09:40:24;;;;;;;2.00;1.90;;;22.30;66.60;;;;;;5062953;28;20033;-36
2021/09/08 09:42:50;;;;;;;1.63;1.52;;;22.30;66.60;;;;;;5045503;28;20028;-36
2021/09/08 09:45:16;;;;;;;2.20;2.03;;;22.30;66.60;;;;;;5062644;28;20044;-36
2021/09/08 09:47:45;;;;;;;1.90;1.80;;;22.30;66.60;;;;;;5062498;28;20037;-36
2021/09/08 09:50:21;;;;;;;2.47;2.20;;;22.30;66.60;;;;;;5050770;28;20037;-35
2021/09/08 09:52:54;;;;;;;2.28;2.08;;;22.30;66.60;;;;;;5073528;28;20082;-36
2021/09/08 09:55:21;;;;;;;2.35;1.75;;;22.30;66.60;;;;;;5060437;28;20021;-36
2021/09/08 09:57:48;;;;;;;2.33;1.98;;;22.30;66.70;;;;;;5061993;28;20049;-36
2021/09/08 10:00:17;;;;;;;2.22;2.03;;;22.30;66.70;;;;;;5062545;28;20084;-36
2021/09/08 10:02:44;;;;;;;2.83;1.77;;;22.30;66.70;;;;;;5044910;28;20033;-35
2021/09/08 10:05:10;;;;;;;2.10;1.90;;;22.30;66.70;;;;;;5062537;28;20092;-36
2021/09/08 10:07:37;;;;;;;2.33;2.13;;;22.30;66.70;;;;;;5044286;28;20045;-36
2021/09/08 10:10:24;;;;;;;2.08;1.88;;;22.30;66.60;;;;;;5058547;28;20084;-36
2021/09/08 10:13:16;;;;;;;2.03;1.90;;;22.30;66.60;;;;;;5051556;28;20038;-35
2021/09/08 10:15:43;;;;;;;2.47;2.28;;;22.30;66.70;;;;;;5009802;28;20049;-35
2021/09/08 10:18:10;;;;;;;2.30;2.03;;;22.30;66.60;;;;;;5062247;28;20027;-35
2021/09/08 10:20:37;;;;;;;2.28;2.08;;;22.30;66.70;;;;;;5062170;28;20033;-36
2021/09/08 10:23:10;;;;;;;1.92;1.80;;;22.30;66.70;;;;;;5062439;28;20029;-36
2021/09/08 10:25:36;;;;;;;1.70;1.60;;;22.30;66.70;;;;;;5061950;28;20096;-36
2021/09/08 10:28:04;;;;;;;2.20;1.83;;;22.30;66.70;;;;;;5061879;28;20036;-36
2021/09/08 10:30:30;;;;;;;2.63;2.42;;;22.30;66.60;;;;;;5062532;28;20246;-36
2021/09/08 10:32:57;;;;;;;2.22;2.03;;;22.30;66.60;;;;;;5044140;28;20049;-36
2021/09/08 10:35:23;;;;;;;2.13;1.93;;;22.30;66.70;;;;;;5044374;28;20059;-36
2021/09/08 10:37:53;;;;;;;2.08;1.77;;;22.30;66.70;;;;;;5060175;28;20078;-36
2021/09/08 10:40:23;;;;;;;2.13;1.92;;;22.30;65.70;;;;;;5061615;28;20025;-36
2021/09/08 10:42:56;;;;;;;1.77;1.40;;;22.30;65.10;;;;;;5061825;28;20025;-36
2021/09/08 10:45:26;;;;;;;1.45;1.35;;;22.30;64.90;;;;;;5062247;28;20089;-36
2021/09/08 10:47:53;;;;;;;1.52;1.42;;;22.30;65.10;;;;;;5061764;28;20064;-36
2021/09/08 10:50:35;;;;;;;2.03;1.83;;;22.30;65.40;;;;;;5061746;28;20050;-36
2021/09/08 10:53:04;;;;;;;2.03;1.80;;;22.30;65.60;;;;;;5062011;28;20075;-36
2021/09/08 10:55:44;;;;;;;2.20;1.67;;;22.30;65.80;;;;;;5043839;28;20025;-36
2021/09/08 10:58:10;;;;;;;2.30;2.10;;;22.30;66.00;;;;;;5061678;28;20045;-36
2021/09/08 11:00:38;;;;;;;1.80;1.70;;;22.20;65.90;;;;;;5061735;28;20025;-35
2021/09/08 11:03:07;;;;;;;2.00;1.80;;;22.20;65.90;;;;;;5057002;28;20041;-36
2021/09/08 11:05:52;;;;;;;3.25;1.90;;;22.20;66.00;;;;;;5061083;28;20113;-35
2021/09/08 11:08:33;;;;;;;2.00;1.35;;;22.20;66.00;;;;;;5042819;28;20037;-36
2021/09/08 11:11:25;;;;;;;2.10;1.88;;;22.20;66.00;;;;;;5060924;28;20029;-36
2021/09/08 11:13:54;;;;;;;1.55;1.45;;;22.20;65.90;;;;;;5059487;28;20041;-36
2021/09/08 11:16:25;;;;;;;1.83;1.60;;;22.20;66.00;;;;;;5063435;28;20025;-36
2021/09/08 11:18:52;;;;;;;2.22;1.77;;;22.20;66.00;;;;;;5067280;28;20112;-36
2021/09/08 11:21:19;;;;;;;;;;;22.20;66.10;;;;;;5086189;28;20024;-36
2021/09/08 11:23:47;;;;;;;1.90;1.60;;;22.20;66.00;;;;;;5065878;28;19904;-36
2021/09/08 11:26:13;;;;;;;2.63;1.75;;;22.20;66.10;;;;;;5065340;28;20025;-36
2021/09/08 11:28:40;;;;;;;2.15;1.73;;;22.20;66.10;;;;;;5047285;28;20557;-36
2021/09/08 11:31:19;;;;;;;1.95;1.75;;;22.20;66.10;;;;;;5065550;28;20678;-36
2021/09/08 11:33:45;;;;;;;2.05;1.85;;;22.20;66.10;;;;;;5065350;28;20710;-36
2021/09/08 11:36:19;;;;;;;1.60;1.50;;;22.20;66.10;;;;;;5065483;28;20056;-36
2021/09/08 11:38:50;;;;;;;1.60;1.50;;;22.20;66.10;;;;;;5065021;28;20051;-36
2021/09/08 11:41:17;;;;;;;1.70;1.60;;;22.20;66.10;;;;;;5064569;28;20024;-36
2021/09/08 11:43:47;;;;;;;1.70;1.60;;;22.20;66.20;;;;;;5065258;28;20483;-36
2021/09/08 11:46:18;;;;;;;1.85;1.60;;;22.20;66.20;;;;;;5079550;28;20087;-36
2021/09/08 11:48:49;;;;;;;1.67;1.58;;;22.20;66.20;;;;;;5064875;28;20116;-36
2021/09/08 11:51:17;;;;;;;1.67;1.58;;;22.20;66.20;;;;;;5048845;28;20039;-36
2021/09/08 11:53:43;;;;;;;3.58;1.80;;;22.20;66.20;;;;;;5065079;28;20033;-36
2021/09/08 11:56:12;;;;;;;1.58;1.48;;;22.20;66.30;;;;;;5064535;28;20032;-36
2021/09/08 11:58:39;;;;;;;1.60;1.50;;;22.20;66.30;;;;;;5064312;28;20918;-36
2021/09/08 12:01:09;;;;;;;2.35;1.90;;;22.20;66.30;;;;;;5064742;28;20040;-35
2021/09/08 12:03:40;;;;;;;1.80;1.60;;;22.20;66.40;;;;;;5064229;28;20884;-36
2021/09/08 12:06:08;;;;;;;1.70;1.60;;;22.20;66.40;;;;;;5064794;28;20029;-36
2021/09/08 12:08:35;;;;;;;3.53;1.65;;;22.20;66.40;;;;;;5064228;28;20043;-36
2021/09/08 12:11:01;;;;;;;1.67;1.50;;;22.20;66.40;;;;;;5064049;28;20032;-36
2021/09/08 12:13:33;;;;;;;1.77;1.50;;;22.20;66.40;;;;;;5064268;28;20037;-37
2021/09/08 12:16:00;;;;;;;1.65;1.35;;;22.20;66.40;;;;;;5064644;28;20036;-36
2021/09/08 12:18:26;;;;;;;1.50;1.40;;;22.20;66.40;;;;;;5069477;28;20024;-36
2021/09/08 12:20:52;;;;;;;1.58;1.42;;;22.20;66.40;;;;;;5084254;28;20028;-36
2021/09/08 12:23:29;;;;;;;1.88;1.70;;;22.20;66.40;;;;;;5084331;28;20122;-36
2021/09/08 12:26:06;;;;;;;1.65;1.35;;;22.20;66.50;;;;;;5082543;28;20028;-36
2021/09/08 12:28:32;;;;;;;1.70;1.58;;;22.20;66.50;;;;;;5045053;28;20029;-35
2021/09/08 12:31:17;;;;;;;2.23;1.50;;;22.20;66.50;;;;;;5064636;28;20025;-36
2021/09/08 12:33:59;;;;;;;2.20;2.00;;;22.20;66.60;;;;;;5063925;28;20037;-36
2021/09/08 12:36:26;;;;;;;1.65;1.55;;;22.20;66.70;;;;;;5055497;28;20036;-36
2021/09/08 12:38:52;;;;;;;2.40;1.85;;;22.20;67.50;;;;;;5054661;28;20068;-35
2021/09/08 12:41:27;;;;;;;1.60;1.50;;;22.20;66.70;;;;;;5063918;28;20024;-36
2021/09/08 12:43:53;;;;;;;2.03;1.60;;;22.20;66.70;;;;;;5063923;28;20032;-36
2021/09/08 12:46:46;;;;;;;2.00;1.80;;;22.20;66.70;;;;;;5083958;28;20025;-36
2021/09/08 12:49:30;;;;;;;2.45;1.95;;;22.20;66.70;;;;;;5066593;28;20512;-36